sensor_id;sensor_type;location;lat;lon;timestamp;P1;durP1;ratioP1;P2;durP2;ratioP2
13368;SDS011;6753;52.520;13.450;2024-03-02T00:00:08;476.48;;;183.25;;
13368;SDS011;6753;52.520;13.450;2024-03-02T00:00:22;489.42;;;190.82;;
13368;SDS011;6753;52.520;13.450;2024-03-02T00:00:34;490.95;;;194.50;;
13368;SDS011;6753;52.520;13.450;2024-03-02T00:00:49;494.70;;;198.70;;
13368;SDS011;6753;52.520;13.450;2024-03-02T00:01:01;502.05;;;200.95;;
13368;SDS011;6753;52.520;13.450;2024-03-02T00:01:13;503.67;;;201.25;;
13368;SDS011;6753;52.520;13.450;2024-03-02T00:01:24;503.38;;;200.63;;
13368;SDS011;6753;52.520;13.450;2024-03-02T00:01:35;508.35;;;198.25;;
13368;SDS011;6753;52.520;13.450;2024-03-02T00:01:46;505.93;;;197.23;;
13368;SDS011;6753;52.520;13.450;2024-03-02T00:01:56;508.85;;;198.23;;
13368;SDS011;6753;52.520;13.450;2024-03-02T00:02:07;498.20;;;194.75;;
13368;SDS011;6753;52.520;13.450;2024-03-02T00:02:18;492.95;;;189.48;;
13368;SDS011;6753;52.520;13.450;2024-03-02T00:02:28;486.77;;;189.83;;
13368;SDS011;6753;52.520;13.450;2024-03-02T00:02:39;482.85;;;187.70;;
13368;SDS011;6753;52.520;13.450;2024-03-02T00:02:51;477.10;;;182.77;;
13368;SDS011;6753;52.520;13.450;2024-03-02T00:03:02;462.02;;;174.68;;
13368;SDS011;6753;52.520;13.450;2024-03-02T00:03:14;457.65;;;173.57;;
13368;SDS011;6753;52.520;13.450;2024-03-02T00:03:25;460.17;;;174.43;;
13368;SDS011;6753;52.520;13.450;2024-03-02T00:03:36;460.27;;;172.33;;
13368;SDS011;6753;52.520;13.450;2024-03-02T00:03:47;457.23;;;169.82;;
13368;SDS011;6753;52.520;13.450;2024-03-02T00:03:57;461.48;;;175.43;;
13368;SDS011;6753;52.520;13.450;2024-03-02T00:04:08;457.98;;;176.15;;
13368;SDS011;6753;52.520;13.450;2024-03-02T00:04:19;455.33;;;173.80;;
13368;SDS011;6753;52.520;13.450;2024-03-02T00:04:30;445.07;;;167.07;;
13368;SDS011;6753;52.520;13.450;2024-03-02T00:04:43;431.45;;;163.45;;
13368;SDS011;6753;52.520;13.450;2024-03-02T00:04:54;431.67;;;160.80;;
13368;SDS011;6753;52.520;13.450;2024-03-02T00:05:05;425.25;;;157.98;;
13368;SDS011;6753;52.520;13.450;2024-03-02T00:05:17;423.25;;;158.02;;
13368;SDS011;6753;52.520;13.450;2024-03-02T00:05:29;430.42;;;159.93;;
13368;SDS011;6753;52.520;13.450;2024-03-02T00:05:40;442.07;;;162.53;;
13368;SDS011;6753;52.520;13.450;2024-03-02T00:05:51;456.35;;;167.55;;
13368;SDS011;6753;52.520;13.450;2024-03-02T00:06:02;473.58;;;175.13;;
13368;SDS011;6753;52.520;13.450;2024-03-02T00:06:13;490.45;;;184.65;;
13368;SDS011;6753;52.520;13.450;2024-03-02T00:06:24;498.48;;;191.52;;
13368;SDS011;6753;52.520;13.450;2024-03-02T00:06:34;505.20;;;200.35;;
13368;SDS011;6753;52.520;13.450;2024-03-02T00:06:47;513.38;;;206.75;;
13368;SDS011;6753;52.520;13.450;2024-03-02T00:07:01;507.65;;;202.73;;
13368;SDS011;6753;52.520;13.450;2024-03-02T00:07:12;500.20;;;199.27;;
13368;SDS011;6753;52.520;13.450;2024-03-02T00:07:24;503.90;;;202.82;;
13368;SDS011;6753;52.520;13.450;2024-03-02T00:07:37;503.10;;;207.77;;
13368;SDS011;6753;52.520;13.450;2024-03-02T00:07:52;509.85;;;212.77;;
13368;SDS011;6753;52.520;13.450;2024-03-02T00:08:05;507.85;;;214.80;;
13368;SDS011;6753;52.520;13.450;2024-03-02T00:08:20;502.63;;;210.73;;
13368;SDS011;6753;52.520;13.450;2024-03-02T00:08:34;495.45;;;199.95;;
13368;SDS011;6753;52.520;13.450;2024-03-02T00:08:46;489.27;;;193.18;;
13368;SDS011;6753;52.520;13.450;2024-03-02T00:08:57;491.73;;;196.05;;
13368;SDS011;6753;52.520;13.450;2024-03-02T00:09:09;489.43;;;193.57;;
13368;SDS011;6753;52.520;13.450;2024-03-02T00:09:22;497.83;;;196.02;;
13368;SDS011;6753;52.520;13.450;2024-03-02T00:09:33;511.65;;;200.60;;
13368;SDS011;6753;52.520;13.450;2024-03-02T00:09:45;520.67;;;205.27;;
13368;SDS011;6753;52.520;13.450;2024-03-02T00:09:55;517.03;;;206.83;;
13368;SDS011;6753;52.520;13.450;2024-03-02T00:10:07;512.03;;;208.35;;
13368;SDS011;6753;52.520;13.450;2024-03-02T00:10:22;533.20;;;218.27;;
13368;SDS011;6753;52.520;13.450;2024-03-02T00:10:38;533.85;;;221.15;;
13368;SDS011;6753;52.520;13.450;2024-03-02T00:10:51;559.03;;;229.90;;
13368;SDS011;6753;52.520;13.450;2024-03-02T00:11:06;585.92;;;241.40;;
13368;SDS011;6753;52.520;13.450;2024-03-02T00:11:18;611.97;;;280.67;;
13368;SDS011;6753;52.520;13.450;2024-03-02T00:11:29;658.35;;;288.08;;
13368;SDS011;6753;52.520;13.450;2024-03-02T00:11:39;645.63;;;283.20;;
13368;SDS011;6753;52.520;13.450;2024-03-02T00:11:50;630.70;;;278.08;;
13368;SDS011;6753;52.520;13.450;2024-03-02T00:12:01;622.50;;;272.00;;
13368;SDS011;6753;52.520;13.450;2024-03-02T00:12:13;617.08;;;265.00;;
13368;SDS011;6753;52.520;13.450;2024-03-02T00:12:25;598.25;;;260.77;;
13368;SDS011;6753;52.520;13.450;2024-03-02T00:12:36;590.05;;;257.10;;
13368;SDS011;6753;52.520;13.450;2024-03-02T00:12:48;587.22;;;254.73;;
13368;SDS011;6753;52.520;13.450;2024-03-02T00:12:59;592.10;;;259.07;;
13368;SDS011;6753;52.520;13.450;2024-03-02T00:13:10;588.13;;;259.42;;
13368;SDS011;6753;52.520;13.450;2024-03-02T00:13:22;603.10;;;265.50;;
13368;SDS011;6753;52.520;13.450;2024-03-02T00:13:34;604.10;;;270.65;;
13368;SDS011;6753;52.520;13.450;2024-03-02T00:13:45;605.38;;;273.88;;
13368;SDS011;6753;52.520;13.450;2024-03-02T00:13:56;605.40;;;271.70;;
13368;SDS011;6753;52.520;13.450;2024-03-02T00:14:07;608.50;;;277.50;;
13368;SDS011;6753;52.520;13.450;2024-03-02T00:14:18;589.13;;;267.25;;
13368;SDS011;6753;52.520;13.450;2024-03-02T00:14:29;581.22;;;258.35;;
13368;SDS011;6753;52.520;13.450;2024-03-02T00:14:41;576.08;;;255.85;;
13368;SDS011;6753;52.520;13.450;2024-03-02T00:14:52;571.63;;;253.43;;
13368;SDS011;6753;52.520;13.450;2024-03-02T00:15:04;563.30;;;245.48;;
13368;SDS011;6753;52.520;13.450;2024-03-02T00:15:23;567.40;;;249.43;;
13368;SDS011;6753;52.520;13.450;2024-03-02T00:15:54;563.05;;;237.85;;
13368;SDS011;6753;52.520;13.450;2024-03-02T00:16:05;554.13;;;233.50;;
13368;SDS011;6753;52.520;13.450;2024-03-02T00:16:16;543.05;;;224.07;;
13368;SDS011;6753;52.520;13.450;2024-03-02T00:16:29;541.22;;;223.13;;
13368;SDS011;6753;52.520;13.450;2024-03-02T00:16:40;542.47;;;225.93;;
13368;SDS011;6753;52.520;13.450;2024-03-02T00:16:54;539.65;;;227.63;;
13368;SDS011;6753;52.520;13.450;2024-03-02T00:17:05;558.75;;;237.15;;
13368;SDS011;6753;52.520;13.450;2024-03-02T00:17:25;591.17;;;253.70;;
13368;SDS011;6753;52.520;13.450;2024-03-02T00:17:35;613.50;;;266.17;;
13368;SDS011;6753;52.520;13.450;2024-03-02T00:17:46;618.15;;;272.98;;
13368;SDS011;6753;52.520;13.450;2024-03-02T00:18:02;621.53;;;279.85;;
13368;SDS011;6753;52.520;13.450;2024-03-02T00:18:16;604.35;;;274.33;;
13368;SDS011;6753;52.520;13.450;2024-03-02T00:18:30;585.95;;;270.63;;
13368;SDS011;6753;52.520;13.450;2024-03-02T00:18:42;606.55;;;282.10;;
13368;SDS011;6753;52.520;13.450;2024-03-02T00:18:54;612.13;;;281.70;;
13368;SDS011;6753;52.520;13.450;2024-03-02T00:19:05;610.55;;;286.90;;
13368;SDS011;6753;52.520;13.450;2024-03-02T00:19:19;613.92;;;291.50;;
13368;SDS011;6753;52.520;13.450;2024-03-02T00:19:29;614.58;;;290.13;;
13368;SDS011;6753;52.520;13.450;2024-03-02T00:19:40;602.53;;;281.08;;
13368;SDS011;6753;52.520;13.450;2024-03-02T00:19:51;583.60;;;274.63;;
13368;SDS011;6753;52.520;13.450;2024-03-02T00:20:02;589.33;;;274.85;;
13368;SDS011;6753;52.520;13.450;2024-03-02T00:20:13;587.63;;;275.65;;
13368;SDS011;6753;52.520;13.450;2024-03-02T00:20:31;589.38;;;271.85;;
13368;SDS011;6753;52.520;13.450;2024-03-02T00:20:42;582.75;;;261.02;;
13368;SDS011;6753;52.520;13.450;2024-03-02T00:20:53;582.97;;;259.13;;
13368;SDS011;6753;52.520;13.450;2024-03-02T00:21:06;574.92;;;256.05;;
13368;SDS011;6753;52.520;13.450;2024-03-02T00:21:20;569.08;;;246.30;;
13368;SDS011;6753;52.520;13.450;2024-03-02T00:21:32;567.60;;;245.27;;
13368;SDS011;6753;52.520;13.450;2024-03-02T00:21:43;560.03;;;247.38;;
13368;SDS011;6753;52.520;13.450;2024-03-02T00:21:54;555.77;;;242.87;;
13368;SDS011;6753;52.520;13.450;2024-03-02T00:22:05;552.50;;;238.10;;
13368;SDS011;6753;52.520;13.450;2024-03-02T00:22:16;546.30;;;234.38;;
13368;SDS011;6753;52.520;13.450;2024-03-02T00:22:27;533.78;;;231.70;;
13368;SDS011;6753;52.520;13.450;2024-03-02T00:22:38;523.50;;;225.90;;
13368;SDS011;6753;52.520;13.450;2024-03-02T00:22:49;530.67;;;226.98;;
13368;SDS011;6753;52.520;13.450;2024-03-02T00:23:02;525.45;;;224.15;;
13368;SDS011;6753;52.520;13.450;2024-03-02T00:23:15;534.30;;;230.90;;
13368;SDS011;6753;52.520;13.450;2024-03-02T00:23:27;538.85;;;232.93;;
13368;SDS011;6753;52.520;13.450;2024-03-02T00:23:40;555.38;;;243.68;;
13368;SDS011;6753;52.520;13.450;2024-03-02T00:23:51;557.57;;;243.27;;
13368;SDS011;6753;52.520;13.450;2024-03-02T00:24:06;559.92;;;246.30;;
13368;SDS011;6753;52.520;13.450;2024-03-02T00:24:31;557.42;;;236.80;;
13368;SDS011;6753;52.520;13.450;2024-03-02T00:24:44;553.45;;;233.00;;
13368;SDS011;6753;52.520;13.450;2024-03-02T00:24:54;547.27;;;230.73;;
13368;SDS011;6753;52.520;13.450;2024-03-02T00:25:05;547.90;;;230.48;;
13368;SDS011;6753;52.520;13.450;2024-03-02T00:25:18;550.78;;;234.35;;
13368;SDS011;6753;52.520;13.450;2024-03-02T00:25:33;556.20;;;239.98;;
13368;SDS011;6753;52.520;13.450;2024-03-02T00:25:50;548.05;;;243.75;;
13368;SDS011;6753;52.520;13.450;2024-03-02T00:26:04;545.15;;;241.70;;
13368;SDS011;6753;52.520;13.450;2024-03-02T00:26:16;544.65;;;240.55;;
13368;SDS011;6753;52.520;13.450;2024-03-02T00:26:27;545.08;;;234.55;;
13368;SDS011;6753;52.520;13.450;2024-03-02T00:26:38;545.92;;;231.70;;
13368;SDS011;6753;52.520;13.450;2024-03-02T00:26:49;545.78;;;232.60;;
13368;SDS011;6753;52.520;13.450;2024-03-02T00:27:00;547.10;;;236.15;;
13368;SDS011;6753;52.520;13.450;2024-03-02T00:27:14;556.03;;;243.15;;
13368;SDS011;6753;52.520;13.450;2024-03-02T00:27:27;547.22;;;243.77;;
13368;SDS011;6753;52.520;13.450;2024-03-02T00:27:38;547.20;;;249.00;;
13368;SDS011;6753;52.520;13.450;2024-03-02T00:27:49;553.92;;;250.00;;
13368;SDS011;6753;52.520;13.450;2024-03-02T00:28:00;547.30;;;245.07;;
13368;SDS011;6753;52.520;13.450;2024-03-02T00:28:13;529.90;;;231.82;;
13368;SDS011;6753;52.520;13.450;2024-03-02T00:28:29;513.00;;;221.98;;
13368;SDS011;6753;52.520;13.450;2024-03-02T00:28:40;502.85;;;210.63;;
13368;SDS011;6753;52.520;13.450;2024-03-02T00:28:53;487.02;;;199.10;;
13368;SDS011;6753;52.520;13.450;2024-03-02T00:29:06;485.67;;;196.60;;
13368;SDS011;6753;52.520;13.450;2024-03-02T00:29:23;515.90;;;210.40;;
13368;SDS011;6753;52.520;13.450;2024-03-02T00:29:34;521.38;;;215.77;;
13368;SDS011;6753;52.520;13.450;2024-03-02T00:29:45;532.33;;;220.98;;
13368;SDS011;6753;52.520;13.450;2024-03-02T00:29:56;550.05;;;235.30;;
13368;SDS011;6753;52.520;13.450;2024-03-02T00:30:12;560.17;;;246.30;;
13368;SDS011;6753;52.520;13.450;2024-03-02T00:31:02;578.85;;;267.25;;
13368;SDS011;6753;52.520;13.450;2024-03-02T00:31:14;607.60;;;286.40;;
13368;SDS011;6753;52.520;13.450;2024-03-02T00:31:25;621.45;;;295.50;;
13368;SDS011;6753;52.520;13.450;2024-03-02T00:31:36;626.83;;;300.47;;
13368;SDS011;6753;52.520;13.450;2024-03-02T00:31:50;641.28;;;303.50;;
13368;SDS011;6753;52.520;13.450;2024-03-02T00:32:01;640.83;;;302.85;;
13368;SDS011;6753;52.520;13.450;2024-03-02T00:32:12;633.75;;;303.17;;
13368;SDS011;6753;52.520;13.450;2024-03-02T00:32:26;635.95;;;303.63;;
13368;SDS011;6753;52.520;13.450;2024-03-02T00:32:38;618.10;;;294.55;;
13368;SDS011;6753;52.520;13.450;2024-03-02T00:32:49;611.88;;;292.45;;
13368;SDS011;6753;52.520;13.450;2024-03-02T00:33:04;608.47;;;295.30;;
13368;SDS011;6753;52.520;13.450;2024-03-02T00:33:17;586.15;;;276.25;;
13368;SDS011;6753;52.520;13.450;2024-03-02T00:33:30;571.13;;;262.27;;
13368;SDS011;6753;52.520;13.450;2024-03-02T00:33:42;558.60;;;226.38;;
13368;SDS011;6753;52.520;13.450;2024-03-02T00:33:55;555.60;;;235.68;;
13368;SDS011;6753;52.520;13.450;2024-03-02T00:34:10;568.85;;;247.40;;
13368;SDS011;6753;52.520;13.450;2024-03-02T00:34:23;572.33;;;256.23;;
13368;SDS011;6753;52.520;13.450;2024-03-02T00:34:34;569.45;;;258.50;;
13368;SDS011;6753;52.520;13.450;2024-03-02T00:34:46;584.35;;;267.70;;
13368;SDS011;6753;52.520;13.450;2024-03-02T00:34:56;583.63;;;263.10;;
13368;SDS011;6753;52.520;13.450;2024-03-02T00:35:07;570.05;;;254.20;;
13368;SDS011;6753;52.520;13.450;2024-03-02T00:35:23;566.33;;;243.63;;
13368;SDS011;6753;52.520;13.450;2024-03-02T00:35:33;557.58;;;233.80;;
13368;SDS011;6753;52.520;13.450;2024-03-02T00:35:44;547.78;;;235.52;;
13368;SDS011;6753;52.520;13.450;2024-03-02T00:35:55;552.40;;;241.45;;
13368;SDS011;6753;52.520;13.450;2024-03-02T00:36:06;560.58;;;245.10;;
13368;SDS011;6753;52.520;13.450;2024-03-02T00:36:22;561.28;;;253.23;;
13368;SDS011;6753;52.520;13.450;2024-03-02T00:36:36;559.97;;;252.35;;
13368;SDS011;6753;52.520;13.450;2024-03-02T00:36:47;562.78;;;250.13;;
13368;SDS011;6753;52.520;13.450;2024-03-02T00:36:58;558.10;;;251.18;;
13368;SDS011;6753;52.520;13.450;2024-03-02T00:37:09;556.45;;;253.05;;
13368;SDS011;6753;52.520;13.450;2024-03-02T00:37:21;552.08;;;251.40;;
13368;SDS011;6753;52.520;13.450;2024-03-02T00:37:32;550.15;;;251.88;;
13368;SDS011;6753;52.520;13.450;2024-03-02T00:37:44;540.67;;;245.70;;
13368;SDS011;6753;52.520;13.450;2024-03-02T00:37:54;538.95;;;244.05;;
13368;SDS011;6753;52.520;13.450;2024-03-02T00:38:05;540.25;;;242.13;;
13368;SDS011;6753;52.520;13.450;2024-03-02T00:38:16;541.67;;;237.63;;
13368;SDS011;6753;52.520;13.450;2024-03-02T00:38:27;536.83;;;231.57;;
13368;SDS011;6753;52.520;13.450;2024-03-02T00:38:42;539.60;;;229.70;;
13368;SDS011;6753;52.520;13.450;2024-03-02T00:38:56;526.33;;;219.40;;
13368;SDS011;6753;52.520;13.450;2024-03-02T00:39:07;520.28;;;215.45;;
13368;SDS011;6753;52.520;13.450;2024-03-02T00:39:18;519.55;;;217.93;;
13368;SDS011;6753;52.520;13.450;2024-03-02T00:39:28;523.22;;;221.20;;
13368;SDS011;6753;52.520;13.450;2024-03-02T00:39:40;515.10;;;217.63;;
13368;SDS011;6753;52.520;13.450;2024-03-02T00:39:50;508.75;;;214.48;;
13368;SDS011;6753;52.520;13.450;2024-03-02T00:40:01;512.97;;;216.93;;
13368;SDS011;6753;52.520;13.450;2024-03-02T00:40:14;511.65;;;216.48;;
13368;SDS011;6753;52.520;13.450;2024-03-02T00:40:26;504.10;;;211.15;;
13368;SDS011;6753;52.520;13.450;2024-03-02T00:40:40;516.20;;;213.53;;
13368;SDS011;6753;52.520;13.450;2024-03-02T00:40:51;535.15;;;226.35;;
13368;SDS011;6753;52.520;13.450;2024-03-02T00:41:04;545.05;;;233.43;;
13368;SDS011;6753;52.520;13.450;2024-03-02T00:41:18;563.33;;;239.27;;
13368;SDS011;6753;52.520;13.450;2024-03-02T00:41:32;568.58;;;251.98;;
13368;SDS011;6753;52.520;13.450;2024-03-02T00:41:43;522.08;;;229.05;;
13368;SDS011;6753;52.520;13.450;2024-03-02T00:41:54;570.90;;;236.13;;
13368;SDS011;6753;52.520;13.450;2024-03-02T00:42:05;553.00;;;224.30;;
13368;SDS011;6753;52.520;13.450;2024-03-02T00:42:18;546.17;;;220.38;;
13368;SDS011;6753;52.520;13.450;2024-03-02T00:42:29;541.15;;;222.68;;
13368;SDS011;6753;52.520;13.450;2024-03-02T00:42:41;540.67;;;220.10;;
13368;SDS011;6753;52.520;13.450;2024-03-02T00:42:52;525.10;;;212.17;;
13368;SDS011;6753;52.520;13.450;2024-03-02T00:43:03;525.63;;;216.48;;
13368;SDS011;6753;52.520;13.450;2024-03-02T00:43:23;523.92;;;219.35;;
13368;SDS011;6753;52.520;13.450;2024-03-02T00:43:50;528.85;;;225.93;;
13368;SDS011;6753;52.520;13.450;2024-03-02T00:44:12;523.28;;;220.27;;
13368;SDS011;6753;52.520;13.450;2024-03-02T00:44:25;525.08;;;218.63;;
13368;SDS011;6753;52.520;13.450;2024-03-02T00:44:36;525.05;;;217.73;;
13368;SDS011;6753;52.520;13.450;2024-03-02T00:44:47;514.90;;;210.80;;
13368;SDS011;6753;52.520;13.450;2024-03-02T00:44:58;519.13;;;211.95;;
13368;SDS011;6753;52.520;13.450;2024-03-02T00:45:09;542.38;;;223.57;;
13368;SDS011;6753;52.520;13.450;2024-03-02T00:45:20;540.63;;;222.03;;
13368;SDS011;6753;52.520;13.450;2024-03-02T00:45:30;537.22;;;224.52;;
13368;SDS011;6753;52.520;13.450;2024-03-02T00:45:41;536.33;;;217.50;;
13368;SDS011;6753;52.520;13.450;2024-03-02T00:45:52;536.25;;;213.90;;
13368;SDS011;6753;52.520;13.450;2024-03-02T00:46:04;527.35;;;204.30;;
13368;SDS011;6753;52.520;13.450;2024-03-02T00:46:16;529.33;;;200.00;;
13368;SDS011;6753;52.520;13.450;2024-03-02T00:46:29;530.70;;;200.52;;
13368;SDS011;6753;52.520;13.450;2024-03-02T00:46:43;515.40;;;199.55;;
13368;SDS011;6753;52.520;13.450;2024-03-02T00:46:54;496.88;;;193.13;;
13368;SDS011;6753;52.520;13.450;2024-03-02T00:47:05;477.83;;;188.55;;
13368;SDS011;6753;52.520;13.450;2024-03-02T00:47:17;470.33;;;184.57;;
13368;SDS011;6753;52.520;13.450;2024-03-02T00:47:28;444.85;;;168.43;;
13368;SDS011;6753;52.520;13.450;2024-03-02T00:47:39;439.88;;;161.95;;
13368;SDS011;6753;52.520;13.450;2024-03-02T00:47:49;433.23;;;159.23;;
13368;SDS011;6753;52.520;13.450;2024-03-02T00:48:00;439.20;;;161.85;;
13368;SDS011;6753;52.520;13.450;2024-03-02T00:48:11;426.90;;;162.10;;
13368;SDS011;6753;52.520;13.450;2024-03-02T00:48:25;430.95;;;162.95;;
13368;SDS011;6753;52.520;13.450;2024-03-02T00:48:36;420.57;;;160.53;;
13368;SDS011;6753;52.520;13.450;2024-03-02T00:48:48;422.98;;;157.82;;
13368;SDS011;6753;52.520;13.450;2024-03-02T00:49:03;417.58;;;152.80;;
13368;SDS011;6753;52.520;13.450;2024-03-02T00:49:17;418.75;;;150.30;;
13368;SDS011;6753;52.520;13.450;2024-03-02T00:49:30;421.20;;;149.15;;
13368;SDS011;6753;52.520;13.450;2024-03-02T00:49:41;428.20;;;148.63;;
13368;SDS011;6753;52.520;13.450;2024-03-02T00:49:52;415.33;;;148.77;;
13368;SDS011;6753;52.520;13.450;2024-03-02T00:50:03;413.90;;;150.10;;
13368;SDS011;6753;52.520;13.450;2024-03-02T00:50:15;406.15;;;148.48;;
13368;SDS011;6753;52.520;13.450;2024-03-02T00:50:29;399.52;;;147.02;;
13368;SDS011;6753;52.520;13.450;2024-03-02T00:50:40;385.58;;;146.77;;
13368;SDS011;6753;52.520;13.450;2024-03-02T00:50:51;392.13;;;148.55;;
13368;SDS011;6753;52.520;13.450;2024-03-02T00:51:02;398.60;;;146.18;;
13368;SDS011;6753;52.520;13.450;2024-03-02T00:51:14;402.77;;;146.10;;
13368;SDS011;6753;52.520;13.450;2024-03-02T00:51:26;413.60;;;147.43;;
13368;SDS011;6753;52.520;13.450;2024-03-02T00:51:37;411.08;;;147.02;;
13368;SDS011;6753;52.520;13.450;2024-03-02T00:51:50;419.98;;;146.23;;
13368;SDS011;6753;52.520;13.450;2024-03-02T00:52:01;405.55;;;144.73;;
13368;SDS011;6753;52.520;13.450;2024-03-02T00:52:13;395.15;;;143.00;;
13368;SDS011;6753;52.520;13.450;2024-03-02T00:52:24;384.52;;;141.60;;
13368;SDS011;6753;52.520;13.450;2024-03-02T00:52:34;381.63;;;141.03;;
13368;SDS011;6753;52.520;13.450;2024-03-02T00:52:45;380.63;;;139.20;;
13368;SDS011;6753;52.520;13.450;2024-03-02T00:52:58;384.45;;;140.25;;
13368;SDS011;6753;52.520;13.450;2024-03-02T00:53:10;379.55;;;137.93;;
13368;SDS011;6753;52.520;13.450;2024-03-02T00:53:23;416.15;;;136.88;;
13368;SDS011;6753;52.520;13.450;2024-03-02T00:53:36;393.85;;;134.45;;
13368;SDS011;6753;52.520;13.450;2024-03-02T00:53:47;378.25;;;132.85;;
13368;SDS011;6753;52.520;13.450;2024-03-02T00:53:59;383.42;;;133.80;;
13368;SDS011;6753;52.520;13.450;2024-03-02T00:54:13;386.98;;;134.00;;
13368;SDS011;6753;52.520;13.450;2024-03-02T00:54:25;372.52;;;130.02;;
13368;SDS011;6753;52.520;13.450;2024-03-02T00:54:38;371.55;;;126.32;;
13368;SDS011;6753;52.520;13.450;2024-03-02T00:54:48;371.10;;;125.07;;
13368;SDS011;6753;52.520;13.450;2024-03-02T00:54:59;356.77;;;121.63;;
13368;SDS011;6753;52.520;13.450;2024-03-02T00:55:10;362.90;;;122.85;;
13368;SDS011;6753;52.520;13.450;2024-03-02T00:55:22;364.60;;;124.80;;
13368;SDS011;6753;52.520;13.450;2024-03-02T00:55:35;358.13;;;127.38;;
13368;SDS011;6753;52.520;13.450;2024-03-02T00:55:47;359.45;;;128.80;;
13368;SDS011;6753;52.520;13.450;2024-03-02T00:55:58;363.60;;;130.13;;
13368;SDS011;6753;52.520;13.450;2024-03-02T00:56:10;349.40;;;128.30;;
13368;SDS011;6753;52.520;13.450;2024-03-02T00:56:22;335.80;;;122.43;;
13368;SDS011;6753;52.520;13.450;2024-03-02T00:56:33;325.88;;;118.18;;
13368;SDS011;6753;52.520;13.450;2024-03-02T00:56:46;332.17;;;120.22;;
13368;SDS011;6753;52.520;13.450;2024-03-02T00:56:58;334.00;;;122.50;;
13368;SDS011;6753;52.520;13.450;2024-03-02T00:57:09;328.35;;;123.35;;
13368;SDS011;6753;52.520;13.450;2024-03-02T00:57:22;335.40;;;125.32;;
13368;SDS011;6753;52.520;13.450;2024-03-02T00:57:44;340.02;;;124.43;;
13368;SDS011;6753;52.520;13.450;2024-03-02T00:57:55;332.83;;;122.53;;
13368;SDS011;6753;52.520;13.450;2024-03-02T00:58:06;333.75;;;119.60;;
13368;SDS011;6753;52.520;13.450;2024-03-02T00:58:16;338.88;;;120.05;;
13368;SDS011;6753;52.520;13.450;2024-03-02T00:58:27;326.80;;;118.63;;
13368;SDS011;6753;52.520;13.450;2024-03-02T00:58:38;323.40;;;117.35;;
13368;SDS011;6753;52.520;13.450;2024-03-02T00:58:49;312.45;;;115.03;;
13368;SDS011;6753;52.520;13.450;2024-03-02T00:59:01;309.80;;;112.07;;
13368;SDS011;6753;52.520;13.450;2024-03-02T00:59:12;298.57;;;110.23;;
13368;SDS011;6753;52.520;13.450;2024-03-02T00:59:23;295.17;;;109.35;;
13368;SDS011;6753;52.520;13.450;2024-03-02T00:59:34;282.08;;;102.93;;
13368;SDS011;6753;52.520;13.450;2024-03-02T00:59:45;265.25;;;97.15;;
13368;SDS011;6753;52.520;13.450;2024-03-02T00:59:56;277.25;;;100.10;;
13368;SDS011;6753;52.520;13.450;2024-03-02T01:00:07;298.65;;;103.25;;
13368;SDS011;6753;52.520;13.450;2024-03-02T01:00:22;300.58;;;103.35;;
13368;SDS011;6753;52.520;13.450;2024-03-02T01:00:32;309.23;;;103.80;;
13368;SDS011;6753;52.520;13.450;2024-03-02T01:00:43;309.80;;;103.13;;
13368;SDS011;6753;52.520;13.450;2024-03-02T01:00:55;277.25;;;100.35;;
13368;SDS011;6753;52.520;13.450;2024-03-02T01:01:07;267.88;;;95.80;;
13368;SDS011;6753;52.520;13.450;2024-03-02T01:01:18;270.77;;;96.43;;
13368;SDS011;6753;52.520;13.450;2024-03-02T01:01:29;287.67;;;98.03;;
13368;SDS011;6753;52.520;13.450;2024-03-02T01:01:40;292.30;;;100.38;;
13368;SDS011;6753;52.520;13.450;2024-03-02T01:01:52;287.38;;;98.72;;
13368;SDS011;6753;52.520;13.450;2024-03-02T01:02:03;300.65;;;100.70;;
13368;SDS011;6753;52.520;13.450;2024-03-02T01:02:14;299.80;;;101.30;;
13368;SDS011;6753;52.520;13.450;2024-03-02T01:02:25;290.77;;;99.53;;
13368;SDS011;6753;52.520;13.450;2024-03-02T01:02:36;296.08;;;97.97;;
13368;SDS011;6753;52.520;13.450;2024-03-02T01:02:48;298.63;;;98.53;;
13368;SDS011;6753;52.520;13.450;2024-03-02T01:03:00;295.48;;;99.57;;
13368;SDS011;6753;52.520;13.450;2024-03-02T01:03:11;307.02;;;102.07;;
13368;SDS011;6753;52.520;13.450;2024-03-02T01:03:22;308.27;;;103.40;;
13368;SDS011;6753;52.520;13.450;2024-03-02T01:03:33;295.83;;;104.10;;
13368;SDS011;6753;52.520;13.450;2024-03-02T01:03:44;288.23;;;104.38;;
13368;SDS011;6753;52.520;13.450;2024-03-02T01:03:54;274.90;;;100.00;;
13368;SDS011;6753;52.520;13.450;2024-03-02T01:04:05;268.48;;;97.80;;
13368;SDS011;6753;52.520;13.450;2024-03-02T01:04:19;262.40;;;97.47;;
13368;SDS011;6753;52.520;13.450;2024-03-02T01:04:30;263.02;;;95.10;;
13368;SDS011;6753;52.520;13.450;2024-03-02T01:04:41;270.35;;;91.32;;
13368;SDS011;6753;52.520;13.450;2024-03-02T01:04:52;256.17;;;88.23;;
13368;SDS011;6753;52.520;13.450;2024-03-02T01:05:03;256.88;;;87.25;;
13368;SDS011;6753;52.520;13.450;2024-03-02T01:05:15;264.83;;;86.93;;
13368;SDS011;6753;52.520;13.450;2024-03-02T01:05:26;259.95;;;88.03;;
13368;SDS011;6753;52.520;13.450;2024-03-02T01:05:40;255.25;;;87.32;;
13368;SDS011;6753;52.520;13.450;2024-03-02T01:05:52;256.77;;;87.40;;
13368;SDS011;6753;52.520;13.450;2024-03-02T01:06:03;256.15;;;90.45;;
13368;SDS011;6753;52.520;13.450;2024-03-02T01:06:14;249.30;;;91.53;;
13368;SDS011;6753;52.520;13.450;2024-03-02T01:06:26;236.80;;;86.38;;
13368;SDS011;6753;52.520;13.450;2024-03-02T01:06:37;211.27;;;78.03;;
13368;SDS011;6753;52.520;13.450;2024-03-02T01:06:48;216.83;;;82.17;;
13368;SDS011;6753;52.520;13.450;2024-03-02T01:06:59;218.35;;;81.72;;
13368;SDS011;6753;52.520;13.450;2024-03-02T01:07:10;225.57;;;79.90;;
13368;SDS011;6753;52.520;13.450;2024-03-02T01:07:20;216.73;;;76.40;;
13368;SDS011;6753;52.520;13.450;2024-03-02T01:07:31;224.67;;;78.30;;
13368;SDS011;6753;52.520;13.450;2024-03-02T01:07:42;243.30;;;81.32;;
13368;SDS011;6753;52.520;13.450;2024-03-02T01:07:52;252.35;;;84.88;;
13368;SDS011;6753;52.520;13.450;2024-03-02T01:08:03;250.53;;;86.87;;
13368;SDS011;6753;52.520;13.450;2024-03-02T01:08:15;268.63;;;92.45;;
13368;SDS011;6753;52.520;13.450;2024-03-02T01:08:26;300.50;;;97.15;;
13368;SDS011;6753;52.520;13.450;2024-03-02T01:08:36;308.40;;;100.40;;
13368;SDS011;6753;52.520;13.450;2024-03-02T01:08:49;317.63;;;104.30;;
13368;SDS011;6753;52.520;13.450;2024-03-02T01:09:01;332.10;;;105.80;;
13368;SDS011;6753;52.520;13.450;2024-03-02T01:09:12;330.52;;;105.57;;
13368;SDS011;6753;52.520;13.450;2024-03-02T01:09:23;314.17;;;106.93;;
13368;SDS011;6753;52.520;13.450;2024-03-02T01:09:34;306.90;;;105.55;;